Terminal Aerodrome Forecast
Issued by NWS Melbourne, FL

Home | Current Version | Previous Version | Text Only | Print | Product List | Glossary On
Versions: 1 2 3 4 5 6 7 8 9 10 11 12 13 14 15 16 17 18 19 20 21 22 23 24 25 26
000
FTUS42 KMLB 152346
TAFMLB
TAF
KMLB 152346Z 1600/1624 10009KT P6SM SCT020 BKN250
     FM160300 12005KT P6SM SCT025 SCT250
     FM161300 15005KT P6SM SCT030
     FM161700 10009KT P6SM VCTS SCT025CB BKN100=

USA.gov is the U.S. government's official web portal to all federal, state and local government web resources and services.